Time;durP1;ratioP1;P1;durP2;ratioP2;P2;SDS_P1;SDS_P2;PMS_P1;PMS_P2;Temp;Humidity;BMP_temperature;BMP_pressure;BME280_temperature;BME280_humidity;BME280_pressure;Samples;Min_cycle;Max_cycle;Signal;HPM_P1;HPM_P2
2024/01/05 00:01:27;;;;;;;3.40;1.90;;;;;;;1.03;81.15;99470.20;130406;1253;114753;-69
2024/01/05 00:04:30;;;;;;;3.40;2.00;;;;;;;1.03;81.07;99477.06;130006;1254;114910;-72
2024/01/05 00:07:31;;;;;;;4.00;2.70;;;;;;;1.03;81.14;99479.52;130330;1254;114714;-67
2024/01/05 00:10:33;;;;;;;4.20;2.30;;;;;;;1.05;81.11;99482.98;130359;1257;114811;-67
2024/01/05 00:13:35;;;;;;;4.30;2.70;;;;;;;1.06;81.42;99484.91;130022;1262;115383;-69
2024/01/05 00:16:37;;;;;;;3.70;1.90;;;;;;;1.06;81.21;99486.67;130114;1257;114754;-69
2024/01/05 00:19:39;;;;;;;4.30;3.20;;;;;;;1.08;81.36;99492.06;130226;1261;114763;-69
2024/01/05 00:22:40;;;;;;;2.70;1.70;;;;;;;1.09;81.28;99500.49;129923;1277;114754;-69
2024/01/05 00:25:42;;;;;;;2.80;1.70;;;;;;;1.10;81.35;99510.30;130185;1259;114824;-69
2024/01/05 00:28:45;;;;;;;3.90;1.70;;;;;;;1.13;81.58;99518.32;130204;1259;114649;-69
2024/01/05 00:31:47;;;;;;;3.40;2.00;;;;;;;1.13;81.25;99530.13;129963;1259;114836;-69
2024/01/05 00:34:49;;;;;;;4.00;2.50;;;;;;;1.12;81.30;99541.04;130009;1254;115331;-69
2024/01/05 00:37:51;;;;;;;3.00;2.30;;;;;;;1.14;81.72;99536.06;130167;1254;115549;-68
2024/01/05 00:40:54;;;;;;;3.40;1.90;;;;;;;1.17;81.49;99537.05;129773;1262;128276;-69
2024/01/05 00:43:55;;;;;;;2.70;1.60;;;;;;;1.19;81.72;99545.10;130137;1260;114861;-68
2024/01/05 00:46:57;;;;;;;4.30;2.40;;;;;;;1.23;81.72;99551.34;130241;1260;114678;-69
2024/01/05 00:49:59;;;;;;;4.40;2.30;;;;;;;1.26;81.74;99560.75;130258;1257;115173;-68
2024/01/05 00:53:01;;;;;;;3.10;1.90;;;;;;;1.30;81.62;99561.55;130291;1253;114722;-69
2024/01/05 00:56:05;;;;;;;4.30;2.30;;;;;;;1.30;81.42;99549.94;130363;1253;115112;-69
2024/01/05 00:59:07;;;;;;;3.50;2.60;;;;;;;1.31;81.80;99543.40;130161;1274;114868;-68
2024/01/05 01:02:09;;;;;;;4.20;1.90;;;;;;;1.34;81.52;99529.80;130376;1258;114731;-68
2024/01/05 01:05:11;;;;;;;5.00;2.60;;;;;;;1.34;81.46;99541.92;130434;1257;114708;-67
2024/01/05 01:08:13;;;;;;;5.40;2.20;;;;;;;1.36;81.72;99540.65;130365;1257;114846;-68
2024/01/05 01:11:16;;;;;;;3.60;1.90;;;;;;;1.38;81.72;99545.19;130461;1253;114772;-67
2024/01/05 01:14:18;;;;;;;3.90;1.80;;;;;;;1.39;81.55;99549.90;130386;1253;114862;-68
2024/01/05 01:17:22;;;;;;;4.00;2.20;;;;;;;1.42;81.57;99544.04;130444;1257;114815;-67
2024/01/05 01:20:24;;;;;;;3.70;1.80;;;;;;;1.42;81.74;99548.78;130368;1257;114773;-67
2024/01/05 01:23:26;;;;;;;3.70;2.20;;;;;;;1.42;81.69;99548.06;130299;1260;114738;-67
2024/01/05 01:26:28;;;;;;;5.50;2.10;;;;;;;1.44;81.74;99553.28;130336;1259;115186;-67
2024/01/05 01:29:30;;;;;;;4.50;2.70;;;;;;;1.47;81.96;99552.35;129996;1254;114838;-67
2024/01/05 01:32:32;;;;;;;3.80;2.60;;;;;;;1.46;81.61;99553.43;130357;1259;114677;-67
2024/01/05 01:35:34;;;;;;;3.70;2.10;;;;;;;1.46;81.64;99549.21;130356;1261;114754;-67
2024/01/05 01:38:36;;;;;;;4.10;2.30;;;;;;;1.45;81.72;99544.66;130086;1262;114781;-67
2024/01/05 01:41:38;;;;;;;3.70;2.50;;;;;;;1.45;81.78;99550.64;130413;1254;115141;-67
2024/01/05 01:44:40;;;;;;;4.40;2.10;;;;;;;1.46;81.88;99552.54;130466;1255;114724;-67
2024/01/05 01:47:42;;;;;;;3.50;2.00;;;;;;;1.45;81.55;99557.52;130111;1253;127709;-67
2024/01/05 01:50:46;;;;;;;3.90;1.80;;;;;;;1.44;81.81;99554.88;130254;1259;114842;-67
2024/01/05 01:53:48;;;;;;;4.40;2.50;;;;;;;1.42;81.51;99556.15;130588;1258;115702;-67
2024/01/05 01:56:50;;;;;;;3.90;2.10;;;;;;;1.39;81.56;99554.31;130289;1254;115436;-67
2024/01/05 01:59:52;;;;;;;5.90;3.50;;;;;;;1.39;81.69;99551.86;130380;1256;115372;-68
2024/01/05 02:02:54;;;;;;;6.80;2.70;;;;;;;1.39;81.85;99553.95;130031;1254;114836;-68
2024/01/05 02:05:57;;;;;;;5.60;3.10;;;;;;;1.39;81.90;99554.66;130236;1259;114787;-67
2024/01/05 02:08:58;;;;;;;4.90;2.40;;;;;;;1.39;81.92;99560.30;130114;1256;114727;-67
2024/01/05 02:12:00;;;;;;;4.20;2.90;;;;;;;1.39;82.06;99568.57;129971;1262;114733;-67
2024/01/05 02:15:03;;;;;;;4.00;2.40;;;;;;;1.40;82.05;99573.46;129995;1259;115567;-68
2024/01/05 02:18:11;;;;;;;3.50;2.20;;;;;;;1.39;81.77;99567.33;130284;1258;114787;-67
2024/01/05 02:21:13;;;;;;;5.00;3.00;;;;;;;1.37;81.75;99574.06;130007;1262;114822;-68
2024/01/05 02:24:15;;;;;;;4.50;2.70;;;;;;;1.35;81.70;99575.67;130179;1259;114760;-68
2024/01/05 02:27:17;;;;;;;6.10;2.60;;;;;;;1.35;81.96;99576.02;130298;1259;115102;-68
2024/01/05 02:30:20;;;;;;;6.50;4.30;;;;;;;1.36;82.09;99568.10;129905;1262;128066;-69
2024/01/05 02:33:23;;;;;;;6.80;2.80;;;;;;;1.32;81.74;99563.44;130180;1260;114760;-69
2024/01/05 02:36:25;;;;;;;5.80;2.50;;;;;;;1.31;82.00;99559.61;130212;1254;114993;-68
2024/01/05 02:39:26;;;;;;;4.30;3.10;;;;;;;1.30;82.00;99559.45;130202;1275;115402;-69
2024/01/05 02:42:28;;;;;;;5.80;3.60;;;;;;;1.27;82.08;99566.36;130296;1257;114817;-69
2024/01/05 02:45:32;;;;;;;5.60;3.70;;;;;;;1.23;81.75;99564.34;130178;1256;114741;-69
2024/01/05 02:48:34;;;;;;;5.60;2.60;;;;;;;1.19;82.15;99558.47;130251;1259;114705;-68
2024/01/05 02:51:36;;;;;;;4.80;2.40;;;;;;;1.14;82.19;99561.74;130234;1256;115449;-68
2024/01/05 02:54:37;;;;;;;5.10;3.30;;;;;;;1.11;82.14;99559.19;129925;1277;114742;-69
2024/01/05 02:57:41;;;;;;;5.10;3.50;;;;;;;1.07;82.17;99559.42;130217;1259;114702;-69
2024/01/05 03:00:43;;;;;;;6.20;3.90;;;;;;;1.02;82.05;99552.70;130223;1257;115270;-69
2024/01/05 03:03:48;;;;;;;5.10;2.50;;;;;;;0.98;81.95;99556.48;130271;1254;115394;-69
2024/01/05 03:06:50;;;;;;;5.10;3.30;;;;;;;0.95;82.14;99556.37;129900;1276;114804;-69
2024/01/05 03:09:52;;;;;;;6.20;3.10;;;;;;;0.93;82.18;99559.40;130173;1256;114737;-67
2024/01/05 03:12:55;;;;;;;6.10;2.80;;;;;;;0.90;82.48;99562.45;130249;1259;114706;-67
2024/01/05 03:15:57;;;;;;;4.20;2.80;;;;;;;0.89;82.40;99570.21;130207;1257;114767;-67
2024/01/05 03:18:59;;;;;;;4.40;2.40;;;;;;;0.89;82.85;99575.30;130255;1254;114814;-68
2024/01/05 03:22:01;;;;;;;4.40;2.90;;;;;;;0.89;82.49;99573.19;130377;1257;116470;-68
2024/01/05 03:25:03;;;;;;;6.30;3.70;;;;;;;0.91;82.70;99565.95;130119;1258;114851;-68
2024/01/05 03:28:05;;;;;;;4.80;3.60;;;;;;;0.91;82.81;99557.14;130206;1254;114671;-68
2024/01/05 03:31:11;;;;;;;6.20;3.80;;;;;;;0.94;82.86;99553.92;130271;1258;114668;-68
2024/01/05 03:34:14;;;;;;;7.70;4.70;;;;;;;0.94;82.95;99554.63;130214;1276;128735;-68
2024/01/05 03:37:16;;;;;;;5.20;3.40;;;;;;;0.96;83.01;99556.35;130273;1276;114721;-68
2024/01/05 03:40:18;;;;;;;7.40;3.40;;;;;;;0.99;83.09;99554.36;130274;1258;114804;-68
2024/01/05 03:43:19;;;;;;;5.60;3.70;;;;;;;1.02;83.35;99554.80;129912;1276;114872;-68
2024/01/05 03:46:21;;;;;;;4.80;3.60;;;;;;;1.05;83.34;99552.26;130201;1273;114641;-68
2024/01/05 03:49:23;;;;;;;6.30;3.10;;;;;;;1.09;83.47;99549.89;130382;1257;114775;-68
2024/01/05 03:52:25;;;;;;;5.00;2.90;;;;;;;1.11;83.44;99544.58;129852;1262;114968;-68
2024/01/05 03:55:27;;;;;;;6.60;3.10;;;;;;;1.14;83.42;99545.40;130048;1275;114736;-68
2024/01/05 03:58:28;;;;;;;4.20;2.60;;;;;;;1.16;83.20;99543.95;130085;1259;115260;-68
2024/01/05 04:01:30;;;;;;;4.60;2.70;;;;;;;1.18;83.38;99539.83;130092;1255;114764;-68
2024/01/05 04:04:32;;;;;;;5.40;2.30;;;;;;;1.21;83.70;99544.35;130253;1256;114719;-68
2024/01/05 04:07:35;;;;;;;7.10;3.30;;;;;;;1.23;83.34;99551.71;130182;1261;114795;-68
2024/01/05 04:10:38;;;;;;;4.00;3.00;;;;;;;1.22;83.15;99554.17;130066;1259;114773;-68
2024/01/05 04:13:40;;;;;;;4.50;2.60;;;;;;;1.24;83.29;99552.71;129954;1256;114810;-68
2024/01/05 04:16:42;;;;;;;3.80;2.10;;;;;;;1.25;83.21;99545.84;130095;1260;115111;-68
2024/01/05 04:19:43;;;;;;;5.60;2.50;;;;;;;1.25;83.05;99550.40;130193;1256;114755;-67
2024/01/05 04:22:45;;;;;;;4.60;2.50;;;;;;;1.26;83.07;99558.30;129908;1259;114925;-67
2024/01/05 04:25:47;;;;;;;4.50;2.70;;;;;;;1.28;83.52;99563.54;129985;1260;114697;-67
2024/01/05 04:28:49;;;;;;;8.80;3.50;;;;;;;1.30;83.26;99566.83;130268;1259;114777;-68
2024/01/05 04:31:51;;;;;;;3.70;2.60;;;;;;;1.31;82.95;99566.11;129934;1254;115362;-67
2024/01/05 04:34:53;;;;;;;3.70;3.10;;;;;;;1.31;83.16;99562.41;130141;1260;114775;-67
2024/01/05 04:37:55;;;;;;;6.30;3.10;;;;;;;1.31;82.53;99564.70;130306;1259;115576;-68
2024/01/05 04:40:57;;;;;;;4.80;2.70;;;;;;;1.29;82.61;99572.30;129908;1261;127694;-68
2024/01/05 04:43:59;;;;;;;3.90;2.90;;;;;;;1.30;82.78;99573.35;130185;1254;115442;-67
2024/01/05 04:47:01;;;;;;;6.80;4.20;;;;;;;1.31;82.80;99581.05;130215;1260;114696;-67
2024/01/05 04:50:04;;;;;;;5.70;4.00;;;;;;;1.35;82.83;99580.96;129817;1263;114837;-68
2024/01/05 04:53:06;;;;;;;8.60;3.70;;;;;;;1.36;82.46;99577.77;130073;1272;114658;-68
2024/01/05 04:56:08;;;;;;;6.30;3.70;;;;;;;1.31;82.51;99575.60;130113;1256;114742;-68
2024/01/05 04:59:10;;;;;;;6.20;3.50;;;;;;;1.31;82.31;99579.81;130207;1259;114718;-68
2024/01/05 05:02:12;;;;;;;6.10;3.60;;;;;;;1.33;82.61;99591.74;130285;1259;128893;-68
2024/01/05 05:05:14;;;;;;;5.70;3.50;;;;;;;1.35;82.39;99590.10;130224;1259;114821;-68
2024/01/05 05:08:15;;;;;;;7.30;3.60;;;;;;;1.34;82.22;99591.52;130123;1256;114745;-68
2024/01/05 05:11:17;;;;;;;4.00;3.30;;;;;;;1.35;82.38;99580.26;130075;1262;114894;-68
2024/01/05 05:14:19;;;;;;;4.50;3.20;;;;;;;1.34;81.99;99581.86;130100;1259;115223;-68
2024/01/05 05:17:21;;;;;;;5.90;2.90;;;;;;;1.32;81.99;99579.63;130104;1259;114760;-68
2024/01/05 05:20:23;;;;;;;5.20;3.20;;;;;;;1.32;82.02;99580.15;130114;1259;115090;-68
2024/01/05 05:23:24;;;;;;;5.10;2.40;;;;;;;1.32;81.90;99575.20;130072;1275;115326;-68
2024/01/05 05:26:26;;;;;;;4.20;2.10;;;;;;;1.32;81.86;99573.12;130110;1256;115056;-68
2024/01/05 05:29:28;;;;;;;4.30;2.50;;;;;;;1.31;81.60;99576.48;130018;1256;115119;-68
2024/01/05 05:32:30;;;;;;;5.00;2.70;;;;;;;1.32;81.98;99576.45;130134;1256;115323;-67
2024/01/05 05:35:32;;;;;;;4.60;2.80;;;;;;;1.34;82.03;99564.95;130209;1259;115509;-68
2024/01/05 05:38:34;;;;;;;7.10;2.40;;;;;;;1.30;81.24;99565.07;130008;1275;114706;-68
2024/01/05 05:41:36;;;;;;;4.90;2.50;;;;;;;1.27;81.49;99571.64;129997;1259;115467;-68
2024/01/05 05:44:38;;;;;;;5.50;3.00;;;;;;;1.27;81.35;99571.30;130101;1255;115491;-68
2024/01/05 05:47:40;;;;;;;4.70;2.80;;;;;;;1.24;81.03;99566.77;129767;1264;127124;-68
2024/01/05 05:50:41;;;;;;;5.40;3.10;;;;;;;1.25;81.32;99567.83;130052;1271;114733;-68
2024/01/05 05:53:43;;;;;;;6.50;2.80;;;;;;;1.25;81.03;99565.19;130245;1259;114791;-68
2024/01/05 05:56:45;;;;;;;4.90;2.90;;;;;;;1.20;80.92;99556.17;130214;1258;114808;-68
2024/01/05 05:59:47;;;;;;;6.10;3.20;;;;;;;1.21;81.49;99564.39;130219;1277;114699;-69
2024/01/05 06:02:49;;;;;;;4.20;3.20;;;;;;;1.22;81.35;99563.67;130361;1255;114725;-68
2024/01/05 06:05:52;;;;;;;6.20;3.20;;;;;;;1.19;81.30;99558.80;130192;1260;114709;-68
2024/01/05 06:08:54;;;;;;;7.10;3.60;;;;;;;1.20;81.29;99557.03;130269;1260;114721;-68
2024/01/05 06:11:56;;;;;;;7.40;4.40;;;;;;;1.23;81.82;99553.96;130298;1258;114697;-68
2024/01/05 06:14:58;;;;;;;6.30;3.10;;;;;;;1.27;81.63;99544.75;130460;1276;115328;-70
2024/01/05 06:18:00;;;;;;;5.50;3.20;;;;;;;1.29;81.70;99545.20;130065;1253;114928;-67
2024/01/05 06:21:02;;;;;;;6.40;3.40;;;;;;;1.30;81.62;99543.44;130357;1258;114856;-67
2024/01/05 06:24:04;;;;;;;7.30;3.60;;;;;;;1.30;81.61;99532.19;130304;1259;114741;-67
2024/01/05 06:27:06;;;;;;;6.00;3.80;;;;;;;1.31;81.82;99523.36;130138;1259;114724;-68
2024/01/05 06:30:11;;;;;;;5.00;3.50;;;;;;;1.30;81.47;99535.86;130189;1258;114798;-66
2024/01/05 06:33:13;;;;;;;8.10;4.30;;;;;;;1.35;82.11;99538.38;129965;1264;114792;-66
2024/01/05 06:36:15;;;;;;;9.20;4.10;;;;;;;1.39;81.74;99538.66;130299;1273;115382;-67
2024/01/05 06:39:16;;;;;;;5.00;3.60;;;;;;;1.40;81.51;99538.45;130319;1259;114792;-68
2024/01/05 06:42:18;;;;;;;7.50;4.90;;;;;;;1.37;81.58;99533.25;129941;1262;114879;-67
2024/01/05 06:45:20;;;;;;;7.40;4.10;;;;;;;1.33;81.34;99531.74;130314;1272;114617;-67
2024/01/05 06:48:22;;;;;;;7.60;5.10;;;;;;;1.30;81.22;99530.94;130238;1259;114674;-67
2024/01/05 06:51:24;;;;;;;6.30;3.40;;;;;;;1.30;81.39;99533.23;129797;1278;128686;-68
2024/01/05 06:54:29;;;;;;;5.20;3.50;;;;;;;1.29;81.05;99530.27;130046;1259;114853;-68
2024/01/05 06:57:31;;;;;;;5.50;2.80;;;;;;;1.25;81.16;99538.27;130311;1259;114700;-67
2024/01/05 07:00:33;;;;;;;4.80;2.90;;;;;;;1.20;80.97;99532.92;130179;1278;114709;-67
2024/01/05 07:03:35;;;;;;;4.60;3.70;;;;;;;1.16;80.77;99530.20;130056;1259;114705;-68
2024/01/05 07:06:41;;;;;;;4.90;3.30;;;;;;;1.14;81.08;99520.77;130361;1259;115104;-67
2024/01/05 07:09:43;;;;;;;5.90;3.10;;;;;;;1.15;81.14;99514.59;130000;1256;127952;-67
2024/01/05 07:12:45;;;;;;;4.10;3.00;;;;;;;1.16;80.94;99516.16;129869;1256;114810;-67
2024/01/05 07:15:49;;;;;;;7.10;4.50;;;;;;;1.16;81.03;99517.73;130102;1259;114744;-68
2024/01/05 07:18:52;;;;;;;5.50;3.30;;;;;;;1.17;81.35;99513.29;130079;1259;115083;-67
2024/01/05 07:21:54;;;;;;;5.40;3.40;;;;;;;1.19;81.36;99514.33;130275;1269;114770;-67
2024/01/05 07:24:56;;;;;;;7.30;3.80;;;;;;;1.19;81.19;99514.66;130359;1259;114725;-67
2024/01/05 07:27:58;;;;;;;6.00;4.60;;;;;;;1.19;81.40;99514.85;130035;1254;115792;-68
2024/01/05 07:31:04;;;;;;;5.30;3.70;;;;;;;1.23;81.49;99521.63;130193;1259;115100;-69
2024/01/05 07:34:07;;;;;;;6.60;4.60;;;;;;;1.27;81.79;99523.27;130268;1253;114682;-67
2024/01/05 07:37:09;;;;;;;5.60;2.60;;;;;;;1.30;81.72;99529.18;130237;1253;114795;-67
2024/01/05 07:40:11;;;;;;;5.60;3.70;;;;;;;1.29;81.36;99529.92;130230;1257;114716;-70
2024/01/05 07:43:13;;;;;;;8.10;4.10;;;;;;;1.27;81.37;99529.07;130330;1258;114696;-68
2024/01/05 07:46:15;;;;;;;6.70;4.30;;;;;;;1.25;81.07;99521.91;130232;1264;114746;-70
2024/01/05 07:49:17;;;;;;;4.30;2.20;;;;;;;1.23;81.00;99530.23;130220;1254;114790;-71
2024/01/05 07:52:18;;;;;;;6.30;3.70;;;;;;;1.20;80.88;99528.88;130284;1259;114776;-71
2024/01/05 07:55:20;;;;;;;6.40;3.60;;;;;;;1.17;80.93;99532.84;129853;1256;114703;-71
2024/01/05 07:58:22;;;;;;;6.50;3.90;;;;;;;1.16;80.89;99529.87;130013;1262;115412;-69
2024/01/05 08:01:24;;;;;;;5.30;3.50;;;;;;;1.16;80.75;99537.97;130324;1258;114699;-72
2024/01/05 08:04:26;;;;;;;4.00;3.10;;;;;;;1.15;80.69;99540.10;129991;1260;114869;-68
2024/01/05 08:07:28;;;;;;;6.40;3.00;;;;;;;1.14;80.34;99535.54;130186;1256;114793;-70
2024/01/05 08:10:30;;;;;;;4.80;2.40;;;;;;;1.17;80.31;99536.34;130174;1259;114786;-70
2024/01/05 08:13:32;;;;;;;6.00;3.30;;;;;;;1.17;80.36;99539.52;130160;1258;128551;-70
2024/01/05 08:16:34;;;;;;;5.50;3.10;;;;;;;1.18;80.38;99533.69;130229;1256;114704;-69
2024/01/05 08:19:36;;;;;;;4.70;2.60;;;;;;;1.18;80.13;99527.89;130213;1259;114695;-70
2024/01/05 08:22:38;;;;;;;6.60;3.20;;;;;;;1.17;79.84;99534.77;129901;1262;114971;-69
2024/01/05 08:25:40;;;;;;;5.60;2.90;;;;;;;1.18;80.36;99534.73;130300;1258;114811;-71
2024/01/05 08:28:42;;;;;;;6.60;3.90;;;;;;;1.21;80.20;99542.59;130448;1259;114771;-69
2024/01/05 08:31:44;;;;;;;10.80;4.30;;;;;;;1.24;80.08;99539.17;129957;1254;114810;-67
2024/01/05 08:34:45;;;;;;;4.30;2.80;;;;;;;1.29;80.04;99548.56;130295;1276;115129;-68
2024/01/05 08:37:47;;;;;;;6.20;2.80;;;;;;;1.36;80.14;99546.64;130312;1276;114744;-68
2024/01/05 08:40:50;;;;;;;10.90;5.00;;;;;;;1.39;79.72;99539.34;130249;1253;114690;-68
2024/01/05 08:43:52;;;;;;;6.20;3.60;;;;;;;1.45;79.73;99531.11;130196;1254;114754;-67
2024/01/05 08:46:54;;;;;;;4.50;2.90;;;;;;;1.46;79.37;99525.79;130206;1259;114728;-68
2024/01/05 08:49:56;;;;;;;7.60;5.00;;;;;;;1.49;79.33;99527.33;130264;1257;114687;-67
2024/01/05 08:52:58;;;;;;;8.90;4.40;;;;;;;1.55;79.62;99531.05;129814;1265;114809;-68
2024/01/05 08:56:00;;;;;;;16.20;8.60;;;;;;;1.60;79.43;99534.43;130116;1259;114715;-68
2024/01/05 08:59:02;;;;;;;27.30;11.50;;;;;;;1.63;79.67;99538.23;130290;1275;114738;-67
2024/01/05 09:02:03;;;;;;;45.10;20.30;;;;;;;1.71;79.48;99531.00;129908;1277;114777;-67
2024/01/05 09:05:06;;;;;;;13.60;7.80;;;;;;;1.79;79.71;99533.06;130054;1276;114798;-68
2024/01/05 09:08:07;;;;;;;12.10;5.40;;;;;;;1.91;79.61;99532.06;130249;1259;114724;-68
2024/01/05 09:11:09;;;;;;;14.50;8.50;;;;;;;1.94;79.42;99534.44;129855;1253;114859;-68
2024/01/05 09:14:11;;;;;;;26.20;12.80;;;;;;;2.03;79.83;99525.58;130186;1257;114783;-68
2024/01/05 09:17:13;;;;;;;29.90;13.40;;;;;;;2.15;79.63;99512.55;130382;1257;114746;-68
2024/01/05 09:20:15;;;;;;;10.60;5.60;;;;;;;2.23;79.26;99504.75;130300;1258;128987;-69
2024/01/05 09:23:17;;;;;;;6.30;3.50;;;;;;;2.27;78.78;99508.52;130295;1259;114824;-68
2024/01/05 09:26:19;;;;;;;8.70;5.10;;;;;;;2.29;78.66;99510.95;130100;1257;114788;-67
2024/01/05 09:29:20;;;;;;;16.80;8.80;;;;;;;2.37;79.08;99514.59;130132;1260;114771;-68
2024/01/05 09:32:22;;;;;;;8.90;4.90;;;;;;;2.45;78.92;99517.17;130238;1257;115384;-68
2024/01/05 09:35:25;;;;;;;9.70;5.90;;;;;;;2.50;78.68;99515.62;130217;1259;114766;-68
2024/01/05 09:38:27;;;;;;;11.40;5.60;;;;;;;2.59;78.90;99521.72;129896;1262;116458;-68
2024/01/05 09:41:29;;;;;;;12.00;6.90;;;;;;;2.68;78.90;99537.15;130188;1257;115151;-68
2024/01/05 09:44:31;;;;;;;5.40;3.50;;;;;;;2.80;79.14;99543.14;130240;1260;114786;-68
2024/01/05 09:47:33;;;;;;;11.40;7.30;;;;;;;2.90;78.65;99537.39;129821;1265;115107;-68
2024/01/05 09:50:35;;;;;;;12.10;7.20;;;;;;;2.93;78.11;99531.11;130184;1267;114807;-67
2024/01/05 09:53:38;;;;;;;10.50;6.20;;;;;;;2.97;78.50;99532.20;130218;1256;115311;-67
2024/01/05 09:56:41;;;;;;;20.90;12.60;;;;;;;3.02;77.90;99532.41;130236;1258;114704;-67
2024/01/05 09:59:47;;;;;;;9.30;6.60;;;;;;;2.97;77.96;99530.28;130432;1259;114729;-67
2024/01/05 10:02:59;;;;;;;11.90;7.20;;;;;;;2.96;77.97;99537.71;130047;1262;127909;-68
2024/01/05 10:06:01;;;;;;;10.50;5.90;;;;;;;2.97;78.23;99530.83;130176;1259;114707;-68
2024/01/05 10:09:02;;;;;;;10.50;6.40;;;;;;;2.96;78.30;99529.95;130213;1259;115505;-67
2024/01/05 10:12:12;;;;;;;11.60;8.50;;;;;;;2.94;78.26;99527.20;130275;1268;114876;-68
2024/01/05 10:15:14;;;;;;;15.00;7.80;;;;;;;2.92;77.92;99518.10;130273;1277;114719;-67
2024/01/05 10:18:16;;;;;;;9.60;6.50;;;;;;;2.89;78.10;99512.72;130174;1268;115183;-67
2024/01/05 10:21:22;;;;;;;11.10;7.50;;;;;;;2.90;78.36;99517.79;130016;1254;115690;-67
2024/01/05 10:24:26;;;;;;;5.00;2.70;;;;;;;2.94;78.54;99516.27;129905;1276;126859;-67
2024/01/05 10:27:28;;;;;;;7.20;4.20;;;;;;;2.95;78.22;99525.08;130323;1259;114635;-67
2024/01/05 10:30:30;;;;;;;7.40;4.70;;;;;;;2.91;78.21;99519.17;130249;1259;114743;-67
2024/01/05 10:33:32;;;;;;;7.70;4.80;;;;;;;2.89;77.99;99518.89;130310;1257;114741;-67
2024/01/05 10:36:34;;;;;;;10.50;6.70;;;;;;;2.90;78.00;99512.48;129848;1262;115328;-67
2024/01/05 10:39:36;;;;;;;5.10;3.10;;;;;;;2.90;77.98;99512.86;130234;1258;115157;-67
2024/01/05 10:42:38;;;;;;;8.10;4.90;;;;;;;2.93;78.34;99506.96;130270;1257;114754;-67
2024/01/05 10:45:41;;;;;;;7.90;5.10;;;;;;;3.00;78.25;99502.67;130274;1259;128838;-67
2024/01/05 10:48:44;;;;;;;8.20;5.00;;;;;;;3.03;78.08;99497.46;129900;1260;114864;-67
2024/01/05 10:51:46;;;;;;;7.20;4.70;;;;;;;3.05;78.14;99488.06;130205;1257;114765;-67
2024/01/05 10:54:50;;;;;;;8.50;5.30;;;;;;;3.09;78.37;99479.45;130221;1267;114737;-67
2024/01/05 10:57:53;;;;;;;9.30;6.60;;;;;;;3.13;78.36;99470.34;130281;1267;114877;-66
2024/01/05 11:00:56;;;;;;;8.40;5.60;;;;;;;3.14;78.21;99466.23;130208;1259;114777;-66
2024/01/05 11:03:59;;;;;;;9.10;6.20;;;;;;;3.14;78.20;99458.49;130222;1259;114727;-65
2024/01/05 11:07:01;;;;;;;7.30;4.70;;;;;;;3.16;78.17;99459.27;130193;1278;114700;-65
2024/01/05 11:10:56;;;;;;;6.00;3.30;;;;;;;3.18;78.13;99460.63;130381;1258;114773;-66
2024/01/05 11:14:07;;;;;;;8.20;5.20;;;;;;;3.15;78.17;99452.06;129488;1265;116332;-67
2024/01/05 11:17:26;;;;;;;6.50;4.50;;;;;;;3.16;78.16;99450.47;129439;1265;114915;-66
2024/01/05 11:20:50;;;;;;;7.60;4.80;;;;;;;3.17;78.12;99443.55;129342;1283;126956;-66
2024/01/05 11:23:55;;;;;;;7.20;4.50;;;;;;;3.18;78.26;99438.03;129677;1265;114896;-68
2024/01/05 11:26:57;;;;;;;9.10;4.90;;;;;;;3.16;77.99;99441.27;129579;1265;115005;-66
2024/01/05 11:30:00;;;;;;;8.70;5.20;;;;;;;3.16;78.10;99442.33;129588;1262;114846;-66
2024/01/05 11:33:02;;;;;;;8.00;5.20;;;;;;;3.20;78.48;99443.63;129553;1265;115157;-67
2024/01/05 11:36:04;;;;;;;10.40;5.70;;;;;;;3.33;78.77;99441.08;129695;1265;114981;-67
2024/01/05 11:39:06;;;;;;;14.70;7.00;;;;;;;3.47;78.62;99439.02;129475;1262;129190;-67
2024/01/05 11:42:08;;;;;;;9.80;5.60;;;;;;;3.56;78.49;99432.56;129590;1266;115158;-66
2024/01/05 11:45:13;;;;;;;6.10;3.90;;;;;;;3.63;78.13;99425.93;129697;1272;114862;-67
2024/01/05 11:48:33;;;;;;;9.10;6.60;;;;;;;3.63;77.67;99419.95;129667;1265;114839;-67
2024/01/05 11:51:35;;;;;;;10.10;6.40;;;;;;;3.62;77.64;99419.63;130181;1260;115391;-67
2024/01/05 11:54:37;;;;;;;9.70;5.90;;;;;;;3.63;77.81;99415.73;130279;1259;114779;-67
2024/01/05 11:57:38;;;;;;;8.40;5.30;;;;;;;3.64;77.93;99412.48;130222;1256;114810;-67
2024/01/05 12:00:42;;;;;;;8.50;5.20;;;;;;;3.63;77.50;99411.63;130114;1269;127633;-67
2024/01/05 12:03:44;;;;;;;6.20;3.50;;;;;;;3.59;77.45;99404.92;130201;1267;114740;-66
2024/01/05 12:06:51;;;;;;;5.10;3.20;;;;;;;3.57;77.54;99409.17;130298;1267;114716;-67
2024/01/05 12:09:53;;;;;;;8.90;5.70;;;;;;;3.58;77.62;99406.35;130225;1277;114786;-67
2024/01/05 12:12:56;;;;;;;5.50;3.80;;;;;;;3.57;77.65;99397.54;130239;1276;115138;-68
2024/01/05 12:16:05;;;;;;;10.90;6.50;;;;;;;3.55;77.48;99397.61;130202;1259;114779;-67
2024/01/05 12:19:19;;;;;;;7.60;4.70;;;;;;;3.54;77.87;99397.48;129998;1262;114833;-67
2024/01/05 12:22:20;;;;;;;11.40;7.00;;;;;;;3.53;77.71;99398.42;129854;1259;114881;-67
2024/01/05 12:25:22;;;;;;;10.90;7.00;;;;;;;3.55;77.87;99394.60;130311;1278;114785;-67
2024/01/05 12:28:25;;;;;;;7.10;3.90;;;;;;;3.61;77.90;99383.64;130094;1267;114712;-67
2024/01/05 12:31:27;;;;;;;11.90;6.40;;;;;;;3.68;77.89;99377.56;129982;1262;114702;-67
2024/01/05 12:34:29;;;;;;;10.50;6.50;;;;;;;3.82;78.31;99370.71;130131;1260;114823;-67
2024/01/05 12:37:34;;;;;;;9.60;5.80;;;;;;;3.97;77.92;99366.23;130127;1259;114685;-67
2024/01/05 12:40:37;;;;;;;13.10;6.90;;;;;;;4.09;77.75;99368.29;130223;1277;114727;-67
2024/01/05 12:43:52;;;;;;;10.60;6.70;;;;;;;4.17;77.30;99364.81;130204;1278;114704;-67
2024/01/05 12:46:54;;;;;;;11.90;6.90;;;;;;;4.19;77.43;99362.77;130290;1267;114731;-68
2024/01/05 12:49:55;;;;;;;11.20;6.10;;;;;;;4.14;76.93;99355.55;130218;1254;115199;-67
2024/01/05 12:52:57;;;;;;;10.80;7.20;;;;;;;4.10;77.29;99356.05;130299;1267;114744;-67
2024/01/05 12:56:09;;;;;;;9.40;5.30;;;;;;;4.04;77.12;99346.54;130032;1260;129117;-68
2024/01/05 12:59:18;;;;;;;;;;;;;;;3.96;77.35;99339.61;130012;1271;114802;-67
2024/01/05 13:02:19;;;;;;;11.20;5.30;;;;;;;3.87;77.59;99339.08;130385;1259;114739;-68
2024/01/05 13:05:29;;;;;;;10.20;6.30;;;;;;;3.82;77.70;99339.98;130359;1259;114824;-67
2024/01/05 13:08:34;;;;;;;11.90;7.20;;;;;;;3.77;78.00;99337.33;129932;1262;114802;-67
2024/01/05 13:11:36;;;;;;;12.60;8.20;;;;;;;3.76;78.13;99331.89;130276;1260;129064;-66
2024/01/05 13:14:39;;;;;;;10.10;6.60;;;;;;;3.73;78.26;99330.05;130231;1276;114734;-67
2024/01/05 13:17:49;;;;;;;11.30;6.40;;;;;;;3.73;78.53;99342.58;130291;1276;114792;-66
2024/01/05 13:20:51;;;;;;;8.20;4.70;;;;;;;3.74;78.58;99342.37;130352;1268;114702;-67
2024/01/05 13:23:54;;;;;;;8.50;5.60;;;;;;;3.76;78.82;99339.81;130120;1277;114868;-66
2024/01/05 13:26:58;;;;;;;11.50;7.20;;;;;;;3.77;78.70;99332.39;130081;1278;114760;-67
2024/01/05 13:30:00;;;;;;;11.40;6.80;;;;;;;3.74;78.77;99321.55;129984;1262;115215;-67
2024/01/05 13:33:03;;;;;;;16.80;8.30;;;;;;;3.73;78.87;99327.05;130252;1254;114693;-67
2024/01/05 13:36:05;;;;;;;7.90;4.90;;;;;;;3.77;79.15;99333.61;130175;1260;114842;-68
2024/01/05 13:39:07;;;;;;;16.00;9.20;;;;;;;3.78;79.01;99330.58;130200;1257;114676;-66
2024/01/05 13:42:10;;;;;;;14.90;7.70;;;;;;;3.77;79.24;99326.38;130333;1268;115194;-67
2024/01/05 13:45:13;;;;;;;15.10;9.40;;;;;;;3.74;79.51;99328.44;130233;1259;115148;-67
2024/01/05 13:48:15;;;;;;;14.30;8.60;;;;;;;3.76;79.50;99326.23;130093;1262;115212;-67
2024/01/05 13:51:17;;;;;;;9.60;5.70;;;;;;;3.74;79.59;99324.89;130382;1259;114734;-67
2024/01/05 13:54:21;;;;;;;14.10;8.20;;;;;;;3.68;79.64;99314.50;130309;1269;114809;-67
2024/01/05 13:57:23;;;;;;;15.20;9.80;;;;;;;3.62;79.68;99298.31;130366;1270;115121;-67
2024/01/05 14:00:25;;;;;;;13.10;8.20;;;;;;;3.55;79.83;99293.98;130260;1267;116340;-67
2024/01/05 14:03:29;;;;;;;19.40;11.70;;;;;;;3.51;79.93;99293.61;130323;1275;114743;-67
2024/01/05 14:06:31;;;;;;;12.40;7.60;;;;;;;3.47;79.97;99299.91;130241;1255;128757;-65
2024/01/05 14:09:34;;;;;;;6.70;4.50;;;;;;;3.46;80.22;99303.33;130214;1259;114876;-69